createdAt,value
2018-02-17T00:56:22.741Z,16.10
2018-02-17T01:01:29.541Z,11.67
2018-02-17T01:22:35.070Z,10.23
2018-02-17T01:27:51.092Z,11.17
2018-02-17T01:33:01.397Z,12.20
2018-02-17T01:57:05.242Z,11.70
2018-02-17T03:09:04.225Z,13.03
2018-02-17T03:15:36.902Z,12.37
2018-02-17T03:26:16.059Z,13.13
2018-02-17T03:31:25.787Z,13.40
2018-02-17T03:47:59.925Z,13.93
2018-02-17T04:21:48.622Z,13.00
2018-02-17T04:56:50.800Z,18.77
2018-02-17T05:02:44.421Z,14.40
2018-02-17T05:16:42.520Z,12.40
2018-02-17T05:35:51.163Z,12.87
2018-02-17T05:48:09.969Z,13.03
2018-02-17T05:59:00.887Z,12.00
2018-02-17T06:15:48.508Z,10.70
2018-02-17T06:55:01.479Z,13.77
2018-02-17T07:05:58.486Z,11.13
2018-02-17T10:45:10.945Z,10.67
2018-02-17T10:50:18.497Z,10.90
2018-02-17T10:55:34.756Z,12.13
2018-02-17T11:01:15.445Z,9.33
2018-02-17T11:06:28.372Z,9.57
2018-02-17T11:11:36.667Z,9.93
2018-02-17T11:16:53.694Z,11.33
2018-02-17T11:22:05.088Z,10.77
2018-02-17T11:32:34.536Z,11.67
2018-02-17T11:43:01.421Z,8.80
2018-02-17T11:48:11.718Z,10.20
2018-02-17T11:53:24.897Z,11.17
2018-02-17T11:58:47.375Z,9.37
2018-02-17T12:03:56.548Z,11.20
2018-02-17T12:09:04.392Z,9.27
2018-02-17T12:19:23.989Z,12.40
2018-02-17T12:24:27.886Z,12.07
2018-02-17T12:29:38.781Z,12.10
2018-02-17T12:34:46.698Z,13.67
2018-02-17T12:45:10.268Z,13.70
2018-02-17T12:50:18.435Z,12.60
2018-02-17T13:00:47.229Z,13.10
2018-02-17T13:05:56.546Z,13.73
2018-02-17T13:11:07.711Z,15.20
2018-02-17T13:16:49.800Z,17.80
2018-02-17T13:27:12.137Z,15.20
2018-02-17T13:43:42.780Z,13.00
2018-02-17T13:49:01.546Z,15.20
2018-02-17T13:54:07.697Z,12.80
2018-02-17T13:59:18.665Z,15.20
2018-02-17T14:10:10.826Z,13.60
2018-02-17T14:35:59.024Z,13.87
2018-02-17T14:41:32.569Z,13.47
2018-02-17T14:47:54.043Z,14.43
2018-02-17T14:53:06.842Z,11.30
2018-02-17T14:58:25.010Z,10.80
2018-02-17T15:10:00.818Z,14.37
2018-02-17T15:15:13.158Z,10.13
2018-02-17T15:30:57.701Z,12.70
2018-02-17T15:36:02.672Z,13.27
2018-02-17T15:41:14.590Z,12.87
2018-02-17T15:46:22.499Z,14.17
2018-02-17T15:51:29.114Z,14.30
2018-02-17T15:56:34.191Z,12.63
2018-02-17T16:01:39.121Z,12.00
2018-02-17T16:06:45.190Z,8.93
2018-02-17T16:11:49.641Z,9.57
2018-02-17T16:16:57.170Z,9.87
2018-02-17T16:22:01.030Z,8.90
2018-02-17T16:27:06.180Z,8.60
2018-02-17T16:32:09.922Z,9.90
2018-02-17T16:37:12.919Z,9.17
2018-02-17T16:42:17.983Z,7.83
2018-02-17T16:47:22.366Z,7.93
2018-02-17T16:52:25.628Z,7.43
2018-02-17T16:57:29.751Z,7.80
2018-02-17T17:02:33.099Z,8.73
2018-02-17T17:07:36.668Z,8.53
2018-02-17T17:12:39.681Z,9.03
2018-02-17T17:17:44.941Z,10.53
2018-02-17T17:22:48.345Z,8.47
2018-02-17T17:27:51.493Z,7.70
2018-02-17T17:32:54.357Z,10.20
2018-02-17T17:37:57.163Z,12.00
2018-02-17T17:43:01.460Z,11.60
2018-02-17T17:48:05.242Z,11.03
2018-02-17T17:53:10.093Z,13.07
2018-02-17T17:58:14.116Z,12.97
2018-02-17T18:03:17.350Z,12.80
2018-02-17T18:08:23.604Z,15.60
2018-02-17T18:13:27.192Z,13.77
2018-02-17T18:18:32.346Z,15.50
2018-02-17T18:23:36.183Z,16.20
2018-02-17T18:28:39.217Z,14.93
2018-02-17T18:33:43.020Z,15.97
2018-02-17T18:38:46.860Z,18.60
2018-02-17T18:43:51.200Z,19.50
2018-02-17T18:48:56.921Z,18.20
2018-02-17T18:53:59.994Z,19.70
2018-02-17T18:59:04.934Z,21.00
2018-02-17T19:04:17.948Z,17.17
2018-02-17T19:09:20.977Z,19.37
2018-02-17T19:14:28.116Z,19.67
2018-02-17T19:19:35.218Z,18.57
2018-02-17T19:24:44.376Z,20.37
2018-02-17T19:29:49.343Z,17.80
2018-02-17T19:34:52.487Z,21.27
2018-02-17T19:39:55.166Z,18.20
2018-02-17T19:44:58.727Z,20.10
2018-02-17T19:50:02.169Z,18.60
2018-02-17T19:55:04.889Z,18.10
2018-02-17T20:00:07.661Z,19.53
2018-02-17T20:05:11.091Z,19.03
2018-02-17T20:10:13.830Z,23.03
2018-02-17T20:15:16.669Z,20.70
2018-02-17T20:20:19.337Z,20.73
2018-02-17T20:25:22.010Z,19.70
2018-02-17T20:30:24.700Z,21.03
2018-02-17T20:35:27.385Z,20.30
2018-02-17T20:40:31.029Z,20.47
2018-02-17T20:45:33.801Z,19.37
2018-02-17T20:50:37.399Z,22.67
2018-02-17T20:55:40.116Z,19.67
2018-02-17T21:00:43.661Z,20.60
2018-02-17T21:05:47.190Z,21.03
2018-02-17T21:10:50.053Z,19.00
2018-02-17T21:15:54.212Z,23.50
2018-02-17T21:20:56.903Z,20.27
2018-02-17T21:25:59.612Z,21.67
2018-02-17T21:31:02.290Z,23.47
2018-02-17T21:36:05.581Z,23.23
2018-02-17T21:41:08.516Z,20.13
2018-02-17T21:46:11.917Z,20.30
2018-02-17T21:51:14.616Z,25.20
2018-02-17T21:56:17.520Z,22.00
2018-02-17T22:01:21.166Z,20.93
2018-02-17T22:06:24.862Z,21.47
2018-02-17T22:11:28.337Z,21.80
2018-02-17T22:16:31.017Z,21.80
2018-02-17T22:21:34.555Z,22.10
2018-02-17T22:26:37.399Z,23.50
2018-02-17T22:31:40.888Z,22.03
2018-02-17T22:36:43.582Z,20.47
2018-02-17T22:41:47.281Z,24.70
2018-02-17T22:46:50.770Z,24.20
2018-02-17T22:51:54.390Z,20.63
2018-02-17T22:56:57.102Z,21.60
2018-02-17T23:02:01.014Z,23.63
2018-02-17T23:07:04.575Z,22.60
2018-02-17T23:12:07.457Z,20.87
2018-02-17T23:17:10.262Z,21.87
2018-02-17T23:22:13.917Z,21.93
2018-02-17T23:27:16.620Z,19.80
2018-02-17T23:32:19.398Z,22.23
2018-02-17T23:37:22.177Z,22.40
2018-02-17T23:42:25.183Z,21.27
2018-02-17T23:47:28.636Z,20.40
2018-02-17T23:52:31.702Z,21.40
2018-02-17T23:57:35.097Z,21.70
